Les Masies de Roda





Hora UTC 05:35
Temperatura 3.9 ºC
Sòl 15 cm 3.8 ºC
Subsòl 10 cm 6.9 ºC
Humitat 100.0 %
Pressió 1020.1 hPa
Pluja 0.0 mm
Velocitat vent 3.3 km/h
Direcció vent W
Radiació solar 0.1 W/m²

Dades diàries 2020-12-01



Hora UTC (hivern +1h; estiu +2h)
Temperatura (ºC) Humitat (%) Pressió (hPa) Velocitat vent (km/h) Precipitació (mm) Radiació solar (W/m²)
Hora UTC Aire Sòl 15 cm Subsòl 10 cm Humitat Pressió Vel. Dir. Vel. Max Dir. Intent. màx 5 min. Rad. Sol.
00:05 5.1 5.0 7.1 100.0 1021.6 0.0 NNE 0.0 SSE 0.0 0.1
00:10 5.1 5.0 7.1 100.0 1021.7 0.0 NNE 0.0 W 0.0 0.1
00:15 5.2 5.0 7.1 100.0 1021.6 0.0 NNE 0.0 W 0.0 0.1
00:20 5.2 5.0 7.1 100.0 1021.6 0.0 NNE 0.0 W 0.0 0.1
00:25 5.2 5.0 7.1 100.0 1021.5 0.0 NNE 0.0 W 0.0 0.1
00:30 5.2 5.0 7.1 100.0 1021.5 0.0 NNE 0.0 W 0.0 0.1
00:35 5.2 5.0 7.1 100.0 1021.5 0.0 NNE 0.0 W 0.0 0.1
00:40 5.2 5.0 7.1 100.0 1021.4 0.0 NNE 0.0 W 0.0 0.1
00:45 5.2 5.1 7.2 100.0 1021.3 0.0 NNE 0.0 W 0.0 0.1
00:50 5.3 5.1 7.2 100.0 1021.3 0.0 NNE 0.0 W 0.0 0.1
00:55 5.3 5.1 7.2 100.0 1021.3 0.0 NNE 0.0 W 0.0 0.1
01:00 5.3 5.1 7.2 100.0 1021.3 0.0 NNE 0.0 W 0.0 0.1
01:05 5.3 5.2 7.2 100.0 1021.3 0.0 NNE 0.0 W 0.0 0.1
01:10 5.3 5.2 7.2 100.0 1021.2 0.0 NNE 0.0 W 0.0 0.1
01:15 5.4 5.2 7.2 100.0 1021.2 0.0 NNE 0.0 W 0.0 0.1
01:20 5.4 5.3 7.2 100.0 1021.2 0.0 NNE 0.0 W 0.0 0.1
01:25 5.4 5.3 7.2 100.0 1021.2 0.7 W 3.4 W 0.0 0.1
01:30 5.4 5.3 7.2 100.0 1021.2 1.2 WSW 3.4 W 0.0 0.1
01:35 5.4 5.2 7.2 100.0 1021.2 2.1 WSW 6.1 W 0.0 0.1
01:40 5.3 5.2 7.2 100.0 1021.3 0.6 SSW 3.4 SW 0.0 0.1
01:45 5.3 5.2 7.2 100.0 1021.3 0.5 SE 3.4 ESE 0.0 0.1
01:50 5.3 5.1 7.2 100.0 1021.3 0.0 NNE 0.0 SE 0.0 0.1
01:55 5.3 5.1 7.2 100.0 1021.2 2.4 W 6.1 W 0.0 0.1
02:00 5.2 5.0 7.2 100.0 1021.2 2.2 W 6.1 W 0.0 0.1
02:05 5.2 5.0 7.2 100.0 1021.1 0.8 WNW 3.4 W 0.0 0.1
02:10 5.1 5.0 7.2 100.0 1021.1 0.0 NNE 0.0 WNW 0.0 0.1
02:15 5.1 4.9 7.2 100.0 1021.1 0.9 NW 6.1 WNW 0.0 0.1
02:20 5.0 4.9 7.2 100.0 1021.1 1.6 WNW 6.1 NW 0.0 0.1
02:25 4.9 4.8 7.2 100.0 1021.1 2.1 W 6.1 W 0.0 0.1
02:30 4.8 4.7 7.2 100.0 1021.1 4.1 W 6.1 W 0.0 0.1
02:35 4.8 4.7 7.2 100.0 1021.1 3.9 W 6.1 W 0.0 0.1
02:40 4.7 4.6 7.2 100.0 1021.1 4.5 W 6.1 WNW 0.0 0.1
02:45 4.7 4.6 7.2 100.0 1021.1 3.6 W 6.1 W 0.0 0.1
02:50 4.6 4.6 7.2 100.0 1021.1 3.6 WSW 6.1 WNW 0.0 0.1
02:55 4.6 4.5 7.1 100.0 1021.1 2.6 W 6.1 W 0.0 0.1
03:00 4.5 4.5 7.1 100.0 1021.1 4.0 W 6.1 WSW 0.0 0.1
03:05 4.4 4.4 7.1 100.0 1021.1 2.6 WSW 6.1 WSW 0.0 0.1
03:10 4.4 4.4 7.1 100.0 1021.0 2.5 SW 6.1 SW 0.0 0.1
03:15 4.3 4.3 7.1 100.0 1020.9 3.5 SW 6.1 SW 0.0 0.1
03:20 4.2 4.2 7.1 100.0 1020.9 3.9 SW 6.1 WSW 0.0 0.1
03:25 4.1 4.1 7.1 100.0 1020.8 1.1 SW 6.1 SW 0.0 0.1
03:30 4.1 4.1 7.1 100.0 1020.7 2.4 SW 6.1 SSW 0.0 0.1
03:35 4.2 4.1 7.1 100.0 1020.7 0.6 W 6.1 W 0.0 0.1
03:40 4.2 4.1 7.0 100.0 1020.7 0.5 W 6.1 W 0.0 0.1
03:45 4.2 4.1 7.0 100.0 1020.6 4.1 WNW 8.8 W 0.0 0.1
03:50 4.2 4.1 7.0 100.0 1020.6 4.1 W 8.8 W 0.0 0.1
03:55 4.2 4.1 7.0 100.0 1020.6 4.0 W 8.8 W 0.0 0.1
04:00 4.1 4.1 7.0 100.0 1020.6 1.9 W 6.1 W 0.0 0.1
04:05 4.1 4.0 7.0 100.0 1020.5 0.0 NNE 0.0 WNW 0.0 0.1
04:10 4.1 4.0 7.0 100.0 1020.5 3.4 W 8.8 WNW 0.0 0.1
04:15 4.0 4.0 7.0 100.0 1020.4 2.5 W 6.1 WSW 0.0 0.1
04:20 4.0 3.9 7.0 100.0 1020.4 4.8 W 8.8 W 0.0 0.1
04:25 3.9 3.9 7.0 100.0 1020.4 4.7 WNW 8.8 NW 0.0 0.1
04:30 3.8 3.8 7.0 100.0 1020.3 2.8 WNW 6.1 NW 0.0 0.1
04:35 3.8 3.8 7.0 100.0 1020.4 3.5 NW 6.1 WNW 0.0 0.1
04:40 3.8 3.7 6.9 100.0 1020.3 0.3 NNW 6.1 NNW 0.0 0.1
04:45 3.8 3.7 6.9 100.0 1020.4 0.0 NNE 0.0 WNW 0.0 0.1
04:50 3.8 3.7 6.9 100.0 1020.3 0.0 NNE 0.0 NW 0.0 0.1
04:55 3.8 3.7 6.9 100.0 1020.3 0.0 NNE 0.0 NW 0.0 0.1
05:00 3.8 3.7 6.9 100.0 1020.3 0.0 NNE 0.0 NW 0.0 0.1
05:05 3.9 3.8 6.9 100.0 1020.3 0.0 NNE 0.0 NW 0.0 0.1
05:10 3.9 3.8 6.9 100.0 1020.3 0.0 NNE 0.0 WNW 0.0 0.1
05:15 3.9 3.9 6.9 100.0 1020.3 1.9 WNW 6.1 WNW 0.0 0.1
05:20 3.9 3.9 6.9 100.0 1020.3 1.5 WNW 6.1 WNW 0.0 0.1
05:25 3.9 3.8 6.9 100.0 1020.3 0.0 NNE 0.0 WNW 0.0 0.1
05:30 3.9 3.9 6.9 100.0 1020.2 0.3 W 3.4 W 0.0 0.1
05:35 3.9 3.8 6.9 100.0 1020.1 3.3 W 6.1 WSW 0.0 0.1
Màxima 5.4 5.3 7.2 100.0 1021.7 4.8 W 8.8 NW 0.0 0.1
Mínima 3.7 3.7 6.9 100.0 1020.1
Total 0.0